Niles, Ohio
Current Conditions -  °F | °C
As of 6:51 PM on Friday 24 Oct 2014 (Local Time) from KYNG Reporting Station
Few Clouds Few Clouds  
Wind Chill: 53°   Ceiling: Unl
Heat Index: 53°   Visibility: 10mi
Dew Point: 39°   Wind: 3mph
Humidity: 59%   Direction: 270°W
Pressure: 30"   Gusts: NA
Location:  41.18°N, 80.76°W
Report Text: KYNG 242251Z 27003KT 10SM FEW080 FEW250 12/04 A3000 RMK AO2 SLP163 T01170039 $
Loading
Personal Weather Stations






























Interactive Weather Map
Tropical Storm Tracking
New forecast layout! Learn more

10-Day Weather Forecast

Advertisements
Track Severe Weather on mobile